sensor_id;sensor_type;location;lat;lon;timestamp;pressure;altitude;pressure_sealevel;temperature;humidity
6345;BME280;3205;42.666;23.264;2023-10-09T00:00:31;94934.16;;;18.64;100.00
6345;BME280;3205;42.666;23.264;2023-10-09T00:03:16;94937.53;;;18.54;100.00
6345;BME280;3205;42.666;23.264;2023-10-09T00:05:43;94926.81;;;18.54;100.00
6345;BME280;3205;42.666;23.264;2023-10-09T00:08:11;94929.09;;;18.56;100.00
6345;BME280;3205;42.666;23.264;2023-10-09T00:10:42;94922.19;;;18.51;100.00
6345;BME280;3205;42.666;23.264;2023-10-09T00:13:15;94934.06;;;18.54;100.00
6345;BME280;3205;42.666;23.264;2023-10-09T00:15:41;94939.66;;;18.38;100.00
6345;BME280;3205;42.666;23.264;2023-10-09T00:18:08;94936.91;;;18.31;100.00
6345;BME280;3205;42.666;23.264;2023-10-09T00:20:37;94926.28;;;18.42;100.00
6345;BME280;3205;42.666;23.264;2023-10-09T00:23:08;94933.53;;;18.41;100.00
6345;BME280;3205;42.666;23.264;2023-10-09T00:25:49;94921.63;;;18.35;100.00
6345;BME280;3205;42.666;23.264;2023-10-09T00:28:32;94927.69;;;18.29;100.00
6345;BME280;3205;42.666;23.264;2023-10-09T00:30:59;94930.00;;;18.30;100.00
6345;BME280;3205;42.666;23.264;2023-10-09T00:33:30;94920.72;;;18.21;100.00
6345;BME280;3205;42.666;23.264;2023-10-09T00:35:56;94910.63;;;18.11;100.00
6345;BME280;3205;42.666;23.264;2023-10-09T00:38:23;94909.72;;;17.96;100.00
6345;BME280;3205;42.666;23.264;2023-10-09T00:40:51;94918.47;;;17.90;100.00
6345;BME280;3205;42.666;23.264;2023-10-09T00:43:30;94915.50;;;17.98;100.00
6345;BME280;3205;42.666;23.264;2023-10-09T00:45:59;94921.34;;;17.78;100.00
6345;BME280;3205;42.666;23.264;2023-10-09T00:48:28;94918.53;;;17.68;100.00
6345;BME280;3205;42.666;23.264;2023-10-09T00:50:57;94904.03;;;17.69;100.00
6345;BME280;3205;42.666;23.264;2023-10-09T00:53:25;94905.88;;;17.61;100.00
6345;BME280;3205;42.666;23.264;2023-10-09T00:55:57;94923.41;;;17.59;100.00
6345;BME280;3205;42.666;23.264;2023-10-09T00:58:31;94929.88;;;17.58;100.00
6345;BME280;3205;42.666;23.264;2023-10-09T01:01:01;94936.31;;;17.53;100.00
6345;BME280;3205;42.666;23.264;2023-10-09T01:03:30;94938.94;;;17.50;100.00
6345;BME280;3205;42.666;23.264;2023-10-09T01:06:01;94937.19;;;17.35;100.00
6345;BME280;3205;42.666;23.264;2023-10-09T01:08:42;94937.19;;;17.35;100.00
6345;BME280;3205;42.666;23.264;2023-10-09T01:11:15;94950.81;;;17.26;100.00
6345;BME280;3205;42.666;23.264;2023-10-09T01:13:45;94954.56;;;17.22;100.00
6345;BME280;3205;42.666;23.264;2023-10-09T01:16:19;94973.56;;;17.17;100.00
6345;BME280;3205;42.666;23.264;2023-10-09T01:18:48;94971.16;;;17.09;100.00
6345;BME280;3205;42.666;23.264;2023-10-09T01:21:15;94969.66;;;17.11;100.00
6345;BME280;3205;42.666;23.264;2023-10-09T01:23:42;94961.97;;;17.09;100.00
6345;BME280;3205;42.666;23.264;2023-10-09T01:26:28;94959.94;;;17.00;100.00
6345;BME280;3205;42.666;23.264;2023-10-09T01:28:58;94967.03;;;16.92;100.00
6345;BME280;3205;42.666;23.264;2023-10-09T01:31:26;94985.91;;;17.03;100.00
6345;BME280;3205;42.666;23.264;2023-10-09T01:33:53;94996.25;;;17.04;100.00
6345;BME280;3205;42.666;23.264;2023-10-09T01:36:19;94997.69;;;16.98;100.00
6345;BME280;3205;42.666;23.264;2023-10-09T01:38:58;95007.00;;;17.08;100.00
6345;BME280;3205;42.666;23.264;2023-10-09T01:41:24;95006.94;;;17.04;100.00
6345;BME280;3205;42.666;23.264;2023-10-09T01:43:51;94986.38;;;17.08;100.00
6345;BME280;3205;42.666;23.264;2023-10-09T01:46:22;94987.47;;;17.04;100.00
6345;BME280;3205;42.666;23.264;2023-10-09T01:48:48;94988.06;;;16.94;100.00
6345;BME280;3205;42.666;23.264;2023-10-09T01:51:15;94982.94;;;16.85;100.00
6345;BME280;3205;42.666;23.264;2023-10-09T01:53:43;94999.34;;;16.84;100.00
6345;BME280;3205;42.666;23.264;2023-10-09T01:56:10;95013.13;;;16.86;100.00
6345;BME280;3205;42.666;23.264;2023-10-09T01:58:41;95012.88;;;16.72;100.00
6345;BME280;3205;42.666;23.264;2023-10-09T02:01:08;95020.06;;;16.68;100.00
6345;BME280;3205;42.666;23.264;2023-10-09T02:03:35;95016.47;;;16.60;100.00
6345;BME280;3205;42.666;23.264;2023-10-09T02:06:02;95025.41;;;16.68;100.00
6345;BME280;3205;42.666;23.264;2023-10-09T02:08:30;95036.34;;;16.63;100.00
6345;BME280;3205;42.666;23.264;2023-10-09T02:11:00;95039.25;;;16.54;100.00
6345;BME280;3205;42.666;23.264;2023-10-09T02:13:29;95034.03;;;16.61;100.00
6345;BME280;3205;42.666;23.264;2023-10-09T02:15:56;95027.69;;;16.47;100.00
6345;BME280;3205;42.666;23.264;2023-10-09T02:18:40;95021.84;;;16.41;100.00
6345;BME280;3205;42.666;23.264;2023-10-09T02:21:18;95028.72;;;16.24;100.00
6345;BME280;3205;42.666;23.264;2023-10-09T02:23:54;95027.66;;;16.28;100.00
6345;BME280;3205;42.666;23.264;2023-10-09T02:26:23;95031.19;;;16.32;100.00
6345;BME280;3205;42.666;23.264;2023-10-09T02:28:51;95049.56;;;16.18;100.00
6345;BME280;3205;42.666;23.264;2023-10-09T02:31:25;95050.19;;;16.12;100.00
6345;BME280;3205;42.666;23.264;2023-10-09T02:33:53;95063.22;;;16.32;100.00
6345;BME280;3205;42.666;23.264;2023-10-09T02:36:21;95052.91;;;16.15;100.00
6345;BME280;3205;42.666;23.264;2023-10-09T02:38:47;95052.44;;;16.10;100.00
6345;BME280;3205;42.666;23.264;2023-10-09T02:41:14;95069.13;;;16.07;100.00
6345;BME280;3205;42.666;23.264;2023-10-09T02:43:46;95081.03;;;15.94;100.00
6345;BME280;3205;42.666;23.264;2023-10-09T02:46:14;95078.66;;;15.89;100.00
6345;BME280;3205;42.666;23.264;2023-10-09T02:48:43;95075.03;;;16.16;100.00
6345;BME280;3205;42.666;23.264;2023-10-09T02:51:13;95079.03;;;16.06;100.00
6345;BME280;3205;42.666;23.264;2023-10-09T02:53:47;95068.09;;;16.11;100.00
6345;BME280;3205;42.666;23.264;2023-10-09T02:56:16;95073.66;;;15.87;100.00
6345;BME280;3205;42.666;23.264;2023-10-09T02:58:49;95077.94;;;15.92;100.00
6345;BME280;3205;42.666;23.264;2023-10-09T03:01:16;95076.09;;;15.77;100.00
6345;BME280;3205;42.666;23.264;2023-10-09T03:03:42;95074.41;;;15.69;100.00
6345;BME280;3205;42.666;23.264;2023-10-09T03:06:12;95076.25;;;15.50;100.00
6345;BME280;3205;42.666;23.264;2023-10-09T03:08:52;95084.50;;;15.45;100.00
6345;BME280;3205;42.666;23.264;2023-10-09T03:11:20;95077.38;;;15.33;100.00
6345;BME280;3205;42.666;23.264;2023-10-09T03:13:46;95079.50;;;15.12;100.00
6345;BME280;3205;42.666;23.264;2023-10-09T03:16:13;95090.69;;;15.33;100.00
6345;BME280;3205;42.666;23.264;2023-10-09T03:18:45;95092.38;;;15.10;100.00
6345;BME280;3205;42.666;23.264;2023-10-09T03:21:12;95097.78;;;14.98;100.00
6345;BME280;3205;42.666;23.264;2023-10-09T03:23:39;95107.47;;;14.91;100.00
6345;BME280;3205;42.666;23.264;2023-10-09T03:26:06;95104.09;;;14.79;100.00
6345;BME280;3205;42.666;23.264;2023-10-09T03:28:33;95111.66;;;14.77;100.00
6345;BME280;3205;42.666;23.264;2023-10-09T03:30:59;95107.06;;;14.62;100.00
6345;BME280;3205;42.666;23.264;2023-10-09T03:33:28;95101.41;;;14.63;100.00
6345;BME280;3205;42.666;23.264;2023-10-09T03:35:59;95105.19;;;14.62;100.00
6345;BME280;3205;42.666;23.264;2023-10-09T03:38:25;95116.97;;;14.77;100.00
6345;BME280;3205;42.666;23.264;2023-10-09T03:40:54;95116.25;;;14.64;100.00
6345;BME280;3205;42.666;23.264;2023-10-09T03:43:21;95126.06;;;14.48;100.00
6345;BME280;3205;42.666;23.264;2023-10-09T03:45:47;95120.16;;;14.55;100.00
6345;BME280;3205;42.666;23.264;2023-10-09T03:48:18;95115.13;;;14.38;100.00
6345;BME280;3205;42.666;23.264;2023-10-09T03:50:51;95111.72;;;14.25;100.00
6345;BME280;3205;42.666;23.264;2023-10-09T03:53:35;95108.41;;;14.28;100.00
6345;BME280;3205;42.666;23.264;2023-10-09T03:56:02;95116.28;;;14.25;100.00
6345;BME280;3205;42.666;23.264;2023-10-09T03:58:31;95130.50;;;14.17;100.00
6345;BME280;3205;42.666;23.264;2023-10-09T04:00:59;95133.16;;;14.17;100.00
6345;BME280;3205;42.666;23.264;2023-10-09T04:03:25;95127.63;;;13.98;100.00
6345;BME280;3205;42.666;23.264;2023-10-09T04:05:52;95132.28;;;14.13;100.00
6345;BME280;3205;42.666;23.264;2023-10-09T04:08:19;95128.84;;;14.01;100.00
6345;BME280;3205;42.666;23.264;2023-10-09T04:10:46;95132.34;;;14.05;100.00
6345;BME280;3205;42.666;23.264;2023-10-09T04:13:18;95130.31;;;13.74;100.00
6345;BME280;3205;42.666;23.264;2023-10-09T04:15:49;95124.34;;;13.77;100.00
6345;BME280;3205;42.666;23.264;2023-10-09T04:18:17;95117.13;;;13.78;100.00
6345;BME280;3205;42.666;23.264;2023-10-09T04:20:44;95121.47;;;13.70;100.00
6345;BME280;3205;42.666;23.264;2023-10-09T04:23:33;95125.22;;;13.69;100.00
6345;BME280;3205;42.666;23.264;2023-10-09T04:26:02;95137.72;;;13.57;100.00
6345;BME280;3205;42.666;23.264;2023-10-09T04:28:39;95135.53;;;13.59;100.00
6345;BME280;3205;42.666;23.264;2023-10-09T04:31:07;95139.50;;;13.65;100.00
6345;BME280;3205;42.666;23.264;2023-10-09T04:33:34;95134.75;;;13.58;100.00
6345;BME280;3205;42.666;23.264;2023-10-09T04:36:09;95130.22;;;13.47;100.00
6345;BME280;3205;42.666;23.264;2023-10-09T04:38:42;95134.97;;;13.41;100.00
6345;BME280;3205;42.666;23.264;2023-10-09T04:41:21;95131.75;;;13.36;100.00
6345;BME280;3205;42.666;23.264;2023-10-09T04:43:53;95140.03;;;13.34;100.00
6345;BME280;3205;42.666;23.264;2023-10-09T04:46:29;95140.94;;;13.38;100.00
6345;BME280;3205;42.666;23.264;2023-10-09T04:49:09;95142.59;;;13.43;100.00
6345;BME280;3205;42.666;23.264;2023-10-09T04:51:52;95141.50;;;13.68;100.00
6345;BME280;3205;42.666;23.264;2023-10-09T04:54:30;95145.03;;;13.72;100.00
6345;BME280;3205;42.666;23.264;2023-10-09T04:57:05;95141.72;;;13.63;100.00
6345;BME280;3205;42.666;23.264;2023-10-09T04:59:43;95139.38;;;13.61;100.00
6345;BME280;3205;42.666;23.264;2023-10-09T05:02:13;95145.28;;;13.55;100.00
6345;BME280;3205;42.666;23.264;2023-10-09T05:04:45;95152.47;;;13.66;100.00
6345;BME280;3205;42.666;23.264;2023-10-09T05:07:16;95158.31;;;13.72;100.00
6345;BME280;3205;42.666;23.264;2023-10-09T05:09:49;95164.97;;;13.66;100.00
6345;BME280;3205;42.666;23.264;2023-10-09T05:12:22;95171.72;;;13.63;100.00
6345;BME280;3205;42.666;23.264;2023-10-09T05:14:52;95166.72;;;13.86;100.00
6345;BME280;3205;42.666;23.264;2023-10-09T05:17:34;95170.94;;;13.87;100.00
6345;BME280;3205;42.666;23.264;2023-10-09T05:20:04;95162.84;;;13.95;100.00
6345;BME280;3205;42.666;23.264;2023-10-09T05:22:54;95166.97;;;14.16;100.00
6345;BME280;3205;42.666;23.264;2023-10-09T05:25:24;95170.59;;;14.63;100.00
6345;BME280;3205;42.666;23.264;2023-10-09T05:28:19;95177.50;;;15.34;100.00
6345;BME280;3205;42.666;23.264;2023-10-09T05:30:56;95189.19;;;15.91;100.00
6345;BME280;3205;42.666;23.264;2023-10-09T05:33:28;95195.94;;;17.10;92.49
6345;BME280;3205;42.666;23.264;2023-10-09T05:35:55;95204.03;;;18.48;78.73
6345;BME280;3205;42.666;23.264;2023-10-09T05:38:47;95203.19;;;19.68;70.42
6345;BME280;3205;42.666;23.264;2023-10-09T05:41:24;95198.63;;;20.73;62.09
6345;BME280;3205;42.666;23.264;2023-10-09T05:44:09;95209.25;;;21.33;56.80
6345;BME280;3205;42.666;23.264;2023-10-09T05:46:53;95211.72;;;22.25;52.13
6345;BME280;3205;42.666;23.264;2023-10-09T05:49:48;95217.03;;;22.95;50.42
6345;BME280;3205;42.666;23.264;2023-10-09T05:52:47;95224.13;;;23.53;49.17
6345;BME280;3205;42.666;23.264;2023-10-09T05:55:32;95229.19;;;23.48;47.29
6345;BME280;3205;42.666;23.264;2023-10-09T05:58:31;95250.72;;;23.62;46.12
6345;BME280;3205;42.666;23.264;2023-10-09T06:01:16;95245.00;;;23.46;46.16
6345;BME280;3205;42.666;23.264;2023-10-09T06:04:09;95249.63;;;23.49;46.48
6345;BME280;3205;42.666;23.264;2023-10-09T06:06:41;95248.56;;;23.25;45.12
6345;BME280;3205;42.666;23.264;2023-10-09T06:09:11;95255.97;;;22.83;45.81
6345;BME280;3205;42.666;23.264;2023-10-09T06:12:10;95257.47;;;23.16;46.13
6345;BME280;3205;42.666;23.264;2023-10-09T06:14:57;95264.19;;;23.65;45.61
6345;BME280;3205;42.666;23.264;2023-10-09T06:17:46;95258.19;;;23.23;44.62
6345;BME280;3205;42.666;23.264;2023-10-09T06:20:16;95258.81;;;23.65;43.88
6345;BME280;3205;42.666;23.264;2023-10-09T06:23:01;95262.44;;;23.24;43.68
6345;BME280;3205;42.666;23.264;2023-10-09T06:25:42;95263.31;;;22.65;44.97
6345;BME280;3205;42.666;23.264;2023-10-09T06:28:17;95268.72;;;22.38;47.19
6345;BME280;3205;42.666;23.264;2023-10-09T06:30:44;95269.13;;;22.36;50.82
6345;BME280;3205;42.666;23.264;2023-10-09T06:33:13;95272.97;;;22.32;48.09
6345;BME280;3205;42.666;23.264;2023-10-09T06:35:46;95272.97;;;22.56;48.38
6345;BME280;3205;42.666;23.264;2023-10-09T06:38:19;95275.34;;;23.71;47.16
6345;BME280;3205;42.666;23.264;2023-10-09T06:40:48;95273.72;;;24.52;43.26
6345;BME280;3205;42.666;23.264;2023-10-09T06:43:32;95266.06;;;24.83;42.08
6345;BME280;3205;42.666;23.264;2023-10-09T06:46:02;95260.69;;;25.53;39.89
6345;BME280;3205;42.666;23.264;2023-10-09T06:48:47;95268.00;;;26.65;38.12
6345;BME280;3205;42.666;23.264;2023-10-09T06:51:24;95274.81;;;27.61;37.58
6345;BME280;3205;42.666;23.264;2023-10-09T06:54:07;95278.66;;;27.99;34.63
6345;BME280;3205;42.666;23.264;2023-10-09T06:56:43;95277.25;;;28.10;35.01
6345;BME280;3205;42.666;23.264;2023-10-09T06:59:27;95277.19;;;28.81;33.83
6345;BME280;3205;42.666;23.264;2023-10-09T07:02:07;95274.31;;;29.60;32.85
6345;BME280;3205;42.666;23.264;2023-10-09T07:04:52;95272.44;;;29.98;30.89
6345;BME280;3205;42.666;23.264;2023-10-09T07:07:21;95264.38;;;29.66;31.40
6345;BME280;3205;42.666;23.264;2023-10-09T07:09:51;95277.38;;;29.18;32.46
6345;BME280;3205;42.666;23.264;2023-10-09T07:12:35;95267.81;;;28.66;31.43
6345;BME280;3205;42.666;23.264;2023-10-09T07:15:08;95279.69;;;28.24;32.20
6345;BME280;3205;42.666;23.264;2023-10-09T07:18:04;95271.88;;;28.07;31.68
6345;BME280;3205;42.666;23.264;2023-10-09T07:20:46;95283.97;;;28.73;30.34
6345;BME280;3205;42.666;23.264;2023-10-09T07:23:25;95266.97;;;29.29;30.64
6345;BME280;3205;42.666;23.264;2023-10-09T07:26:01;95280.88;;;29.03;31.40
6345;BME280;3205;42.666;23.264;2023-10-09T07:28:43;95272.38;;;28.69;30.80
6345;BME280;3205;42.666;23.264;2023-10-09T07:31:17;95279.19;;;28.45;30.35
6345;BME280;3205;42.666;23.264;2023-10-09T07:33:51;95279.41;;;28.86;30.61
6345;BME280;3205;42.666;23.264;2023-10-09T07:36:23;95284.56;;;29.97;30.27
6345;BME280;3205;42.666;23.264;2023-10-09T07:39:00;95287.75;;;30.83;29.25
6345;BME280;3205;42.666;23.264;2023-10-09T07:41:31;95279.09;;;30.96;28.26
6345;BME280;3205;42.666;23.264;2023-10-09T07:44:05;95284.84;;;31.45;27.65
6345;BME280;3205;42.666;23.264;2023-10-09T07:46:45;95275.66;;;31.72;27.44
6345;BME280;3205;42.666;23.264;2023-10-09T07:49:18;95278.38;;;31.72;26.70
6345;BME280;3205;42.666;23.264;2023-10-09T07:51:51;95283.09;;;31.93;26.78
6345;BME280;3205;42.666;23.264;2023-10-09T07:54:18;95284.06;;;31.78;26.55
6345;BME280;3205;42.666;23.264;2023-10-09T07:56:58;95296.34;;;31.52;27.40
6345;BME280;3205;42.666;23.264;2023-10-09T07:59:34;95290.41;;;31.20;26.80
6345;BME280;3205;42.666;23.264;2023-10-09T08:02:02;95291.50;;;31.56;26.99
6345;BME280;3205;42.666;23.264;2023-10-09T08:04:29;95295.88;;;31.54;26.63
6345;BME280;3205;42.666;23.264;2023-10-09T08:07:04;95298.38;;;31.27;27.26
6345;BME280;3205;42.666;23.264;2023-10-09T08:09:32;95294.94;;;31.35;27.28
6345;BME280;3205;42.666;23.264;2023-10-09T08:12:12;95284.13;;;31.32;26.88
6345;BME280;3205;42.666;23.264;2023-10-09T08:15:01;95284.44;;;31.67;26.74
6345;BME280;3205;42.666;23.264;2023-10-09T08:17:42;95275.66;;;31.94;25.78
6345;BME280;3205;42.666;23.264;2023-10-09T08:20:13;95276.56;;;31.69;26.49
6345;BME280;3205;42.666;23.264;2023-10-09T08:22:43;95288.13;;;31.73;26.52
6345;BME280;3205;42.666;23.264;2023-10-09T08:25:10;95279.03;;;31.76;25.93
6345;BME280;3205;42.666;23.264;2023-10-09T08:27:58;95281.94;;;32.03;25.52
6345;BME280;3205;42.666;23.264;2023-10-09T08:30:44;95276.47;;;30.93;26.20
6345;BME280;3205;42.666;23.264;2023-10-09T08:33:15;95266.69;;;30.58;27.46
6345;BME280;3205;42.666;23.264;2023-10-09T08:36:00;95258.66;;;31.01;27.01
6345;BME280;3205;42.666;23.264;2023-10-09T08:38:31;95258.34;;;30.99;26.25
6345;BME280;3205;42.666;23.264;2023-10-09T08:41:07;95251.44;;;30.94;26.07
6345;BME280;3205;42.666;23.264;2023-10-09T08:43:39;95245.03;;;31.22;25.96
6345;BME280;3205;42.666;23.264;2023-10-09T08:46:07;95234.06;;;31.35;25.79
6345;BME280;3205;42.666;23.264;2023-10-09T08:48:34;95228.75;;;31.40;26.03
6345;BME280;3205;42.666;23.264;2023-10-09T08:51:05;95234.47;;;31.12;26.38
6345;BME280;3205;42.666;23.264;2023-10-09T08:53:33;95229.69;;;30.32;26.35
6345;BME280;3205;42.666;23.264;2023-10-09T08:55:59;95227.50;;;30.03;26.01
6345;BME280;3205;42.666;23.264;2023-10-09T08:58:25;95227.13;;;29.88;26.95
6345;BME280;3205;42.666;23.264;2023-10-09T09:00:58;95229.13;;;30.25;26.30
6345;BME280;3205;42.666;23.264;2023-10-09T09:03:26;95227.63;;;30.49;26.02
6345;BME280;3205;42.666;23.264;2023-10-09T09:05:57;95223.13;;;30.30;26.35
6345;BME280;3205;42.666;23.264;2023-10-09T09:08:27;95227.50;;;30.52;27.03
6345;BME280;3205;42.666;23.264;2023-10-09T09:10:58;95220.75;;;30.90;25.98
6345;BME280;3205;42.666;23.264;2023-10-09T09:13:37;95226.31;;;30.16;26.23
6345;BME280;3205;42.666;23.264;2023-10-09T09:16:03;95232.53;;;30.16;26.52
6345;BME280;3205;42.666;23.264;2023-10-09T09:18:29;95236.06;;;29.76;27.16
6345;BME280;3205;42.666;23.264;2023-10-09T09:21:17;95226.13;;;29.01;27.90
6345;BME280;3205;42.666;23.264;2023-10-09T09:23:54;95228.16;;;29.53;27.43
6345;BME280;3205;42.666;23.264;2023-10-09T09:26:33;95220.63;;;29.57;26.94
6345;BME280;3205;42.666;23.264;2023-10-09T09:29:02;95218.41;;;29.12;27.96
6345;BME280;3205;42.666;23.264;2023-10-09T09:31:29;95225.56;;;28.77;27.82
6345;BME280;3205;42.666;23.264;2023-10-09T09:34:04;95213.84;;;27.97;28.60
6345;BME280;3205;42.666;23.264;2023-10-09T09:39:22;95197.78;;;25.72;29.90
6345;BME280;3205;42.666;23.264;2023-10-09T09:41:58;95198.78;;;24.89;31.18
6345;BME280;3205;42.666;23.264;2023-10-09T09:44:33;95199.00;;;24.24;31.72
6345;BME280;3205;42.666;23.264;2023-10-09T09:47:12;95205.47;;;23.83;32.89
6345;BME280;3205;42.666;23.264;2023-10-09T09:49:41;95203.09;;;23.17;34.54
6345;BME280;3205;42.666;23.264;2023-10-09T09:52:08;95203.09;;;23.17;34.21
6345;BME280;3205;42.666;23.264;2023-10-09T09:54:36;95200.84;;;22.95;34.87
6345;BME280;3205;42.666;23.264;2023-10-09T09:57:04;95182.09;;;22.29;34.75
6345;BME280;3205;42.666;23.264;2023-10-09T09:59:37;95180.59;;;21.96;36.02
6345;BME280;3205;42.666;23.264;2023-10-09T10:02:10;95170.19;;;21.84;35.30
6345;BME280;3205;42.666;23.264;2023-10-09T10:04:47;95170.56;;;21.86;35.41
6345;BME280;3205;42.666;23.264;2023-10-09T10:07:17;95162.03;;;21.53;36.15
6345;BME280;3205;42.666;23.264;2023-10-09T10:09:46;95160.53;;;21.52;38.49
6345;BME280;3205;42.666;23.264;2023-10-09T10:12:50;95151.28;;;21.46;36.66
6345;BME280;3205;42.666;23.264;2023-10-09T10:15:57;95149.41;;;21.54;37.89
6345;BME280;3205;42.666;23.264;2023-10-09T10:18:23;95143.59;;;21.48;38.05
6345;BME280;3205;42.666;23.264;2023-10-09T10:21:11;95125.09;;;21.15;36.82
6345;BME280;3205;42.666;23.264;2023-10-09T10:23:43;95127.66;;;20.81;36.61
6345;BME280;3205;42.666;23.264;2023-10-09T10:26:19;95130.97;;;20.50;37.48
6345;BME280;3205;42.666;23.264;2023-10-09T10:29:20;95113.72;;;20.54;38.33
6345;BME280;3205;42.666;23.264;2023-10-09T10:31:56;95108.69;;;20.53;37.87
6345;BME280;3205;42.666;23.264;2023-10-09T10:34:24;95107.16;;;20.52;37.71
6345;BME280;3205;42.666;23.264;2023-10-09T10:36:50;95105.91;;;20.32;37.68
6345;BME280;3205;42.666;23.264;2023-10-09T10:39:24;95095.78;;;20.05;37.58
6345;BME280;3205;42.666;23.264;2023-10-09T10:42:08;95086.09;;;19.93;39.08
6345;BME280;3205;42.666;23.264;2023-10-09T10:44:35;95083.50;;;20.04;39.89
6345;BME280;3205;42.666;23.264;2023-10-09T10:47:04;95081.28;;;20.13;40.05
6345;BME280;3205;42.666;23.264;2023-10-09T10:49:30;95077.88;;;20.26;40.24
6345;BME280;3205;42.666;23.264;2023-10-09T10:52:04;95072.13;;;20.24;39.54
6345;BME280;3205;42.666;23.264;2023-10-09T10:54:43;95067.38;;;20.00;39.31
6345;BME280;3205;42.666;23.264;2023-10-09T10:57:16;95068.13;;;19.94;39.30
6345;BME280;3205;42.666;23.264;2023-10-09T10:59:46;95064.97;;;19.88;40.43
6345;BME280;3205;42.666;23.264;2023-10-09T11:02:16;95068.13;;;19.97;39.84
6345;BME280;3205;42.666;23.264;2023-10-09T11:04:48;95057.09;;;20.09;40.37
6345;BME280;3205;42.666;23.264;2023-10-09T11:07:21;95060.22;;;20.25;41.17
6345;BME280;3205;42.666;23.264;2023-10-09T11:09:54;95061.44;;;20.34;40.07
6345;BME280;3205;42.666;23.264;2023-10-09T11:12:26;95043.81;;;20.40;40.28
6345;BME280;3205;42.666;23.264;2023-10-09T11:15:05;95038.81;;;20.39;40.04
6345;BME280;3205;42.666;23.264;2023-10-09T11:17:33;95023.06;;;20.34;40.96
6345;BME280;3205;42.666;23.264;2023-10-09T11:20:02;95031.13;;;20.34;39.32
6345;BME280;3205;42.666;23.264;2023-10-09T11:22:49;95023.44;;;20.32;39.47
6345;BME280;3205;42.666;23.264;2023-10-09T11:25:43;95006.94;;;20.30;40.14
6345;BME280;3205;42.666;23.264;2023-10-09T11:28:20;95008.44;;;20.21;40.13
6345;BME280;3205;42.666;23.264;2023-10-09T11:31:09;95008.41;;;20.17;40.52
6345;BME280;3205;42.666;23.264;2023-10-09T11:33:44;95005.78;;;20.28;40.08
6345;BME280;3205;42.666;23.264;2023-10-09T11:36:11;95011.59;;;20.40;42.01
6345;BME280;3205;42.666;23.264;2023-10-09T11:38:37;95008.91;;;20.40;39.90
6345;BME280;3205;42.666;23.264;2023-10-09T11:41:13;95015.84;;;20.55;39.93
6345;BME280;3205;42.666;23.264;2023-10-09T11:43:50;95021.22;;;20.55;40.34
6345;BME280;3205;42.666;23.264;2023-10-09T11:46:21;95008.16;;;20.54;39.68
6345;BME280;3205;42.666;23.264;2023-10-09T11:49:08;94992.47;;;20.59;38.96
6345;BME280;3205;42.666;23.264;2023-10-09T11:51:51;94993.97;;;20.50;39.06
6345;BME280;3205;42.666;23.264;2023-10-09T11:54:56;94992.03;;;20.47;40.44
6345;BME280;3205;42.666;23.264;2023-10-09T11:57:25;94984.00;;;20.54;39.64
6345;BME280;3205;42.666;23.264;2023-10-09T11:59:57;94974.38;;;20.53;39.03
6345;BME280;3205;42.666;23.264;2023-10-09T12:02:25;94966.72;;;20.48;39.31
6345;BME280;3205;42.666;23.264;2023-10-09T12:04:51;94960.22;;;20.56;38.74
6345;BME280;3205;42.666;23.264;2023-10-09T12:07:21;94960.22;;;20.59;38.99
6345;BME280;3205;42.666;23.264;2023-10-09T12:09:48;94950.22;;;20.63;37.08
6345;BME280;3205;42.666;23.264;2023-10-09T12:12:14;94947.19;;;20.75;37.17
6345;BME280;3205;42.666;23.264;2023-10-09T12:14:40;94947.59;;;20.88;36.45
6345;BME280;3205;42.666;23.264;2023-10-09T12:17:07;94938.41;;;20.92;35.99
6345;BME280;3205;42.666;23.264;2023-10-09T12:19:36;94943.38;;;20.93;37.53
6345;BME280;3205;42.666;23.264;2023-10-09T12:22:03;94943.03;;;20.98;36.66
6345;BME280;3205;42.666;23.264;2023-10-09T12:24:30;94943.38;;;21.14;35.25
6345;BME280;3205;42.666;23.264;2023-10-09T12:26:57;94939.16;;;21.10;35.57
6345;BME280;3205;42.666;23.264;2023-10-09T12:29:23;94939.16;;;21.17;34.09
6345;BME280;3205;42.666;23.264;2023-10-09T12:31:50;94931.88;;;21.14;34.47
6345;BME280;3205;42.666;23.264;2023-10-09T12:34:23;94936.88;;;21.12;34.08
6345;BME280;3205;42.666;23.264;2023-10-09T12:36:53;94932.28;;;21.05;34.41
6345;BME280;3205;42.666;23.264;2023-10-09T12:39:19;94919.97;;;21.15;34.95
6345;BME280;3205;42.666;23.264;2023-10-09T12:41:47;94926.50;;;21.03;33.06
6345;BME280;3205;42.666;23.264;2023-10-09T12:44:14;94910.75;;;20.98;34.18
6345;BME280;3205;42.666;23.264;2023-10-09T12:46:40;94914.22;;;21.06;33.77
6345;BME280;3205;42.666;23.264;2023-10-09T12:49:07;94914.97;;;21.13;32.77
6345;BME280;3205;42.666;23.264;2023-10-09T12:51:33;94906.53;;;21.18;33.76
6345;BME280;3205;42.666;23.264;2023-10-09T12:54:00;94906.13;;;21.16;33.21
6345;BME280;3205;42.666;23.264;2023-10-09T12:56:27;94897.28;;;21.16;32.35
6345;BME280;3205;42.666;23.264;2023-10-09T12:58:58;94909.22;;;21.15;31.84
6345;BME280;3205;42.666;23.264;2023-10-09T13:01:26;94902.28;;;21.24;32.52
6345;BME280;3205;42.666;23.264;2023-10-09T13:03:57;94891.53;;;21.17;35.61
6345;BME280;3205;42.666;23.264;2023-10-09T13:06:25;94895.00;;;21.18;32.80
6345;BME280;3205;42.666;23.264;2023-10-09T13:08:51;94884.25;;;21.07;31.87
6345;BME280;3205;42.666;23.264;2023-10-09T13:11:18;94879.25;;;21.06;32.60
6345;BME280;3205;42.666;23.264;2023-10-09T13:13:45;94877.72;;;20.98;31.67
6345;BME280;3205;42.666;23.264;2023-10-09T13:16:14;94877.34;;;20.96;33.27
6345;BME280;3205;42.666;23.264;2023-10-09T13:18:48;94869.25;;;21.03;31.08
6345;BME280;3205;42.666;23.264;2023-10-09T13:21:16;94865.06;;;21.05;31.10
6345;BME280;3205;42.666;23.264;2023-10-09T13:23:42;94870.44;;;21.02;31.52
6345;BME280;3205;42.666;23.264;2023-10-09T13:26:12;94868.50;;;21.02;31.52
6345;BME280;3205;42.666;23.264;2023-10-09T13:28:46;94855.81;;;21.03;32.04
6345;BME280;3205;42.666;23.264;2023-10-09T13:31:13;94849.69;;;21.02;32.03
6345;BME280;3205;42.666;23.264;2023-10-09T13:33:40;94853.13;;;20.96;31.55
6345;BME280;3205;42.666;23.264;2023-10-09T13:36:06;94852.38;;;21.09;32.89
6345;BME280;3205;42.666;23.264;2023-10-09T13:38:42;94854.66;;;21.07;32.37
6345;BME280;3205;42.666;23.264;2023-10-09T13:41:09;94848.53;;;21.07;32.21